Time;durP1;ratioP1;P1;durP2;ratioP2;P2;SDS_P1;SDS_P2;PMS_P1;PMS_P2;Temp;Humidity;BMP_temperature;BMP_pressure;BME280_temperature;BME280_humidity;BME280_pressure;Samples;Min_cycle;Max_cycle;Signal;HPM_P1;HPM_P2
2023/10/02 00:01:10;;;;;;;;;;;25.20;71.50;;;;;;5105478;28;20382;-49
2023/10/02 00:03:39;;;;;;;;;;;25.20;71.50;;;;;;5101627;28;19983;-47
2023/10/02 00:06:11;;;;;;;;;;;25.20;71.60;;;;;;5105911;28;19918;-52
2023/10/02 00:08:49;;;;;;;;;;;25.10;71.40;;;;;;5105357;28;19912;-50
2023/10/02 00:14:19;;;;;;;;;;;25.10;71.60;;;;;;5105984;28;19919;-52
2023/10/02 00:19:36;;;;;;;;;;;25.10;71.20;;;;;;5105819;28;20398;-49
2023/10/02 00:25:07;;;;;;;;;;;25.10;71.00;;;;;;5101860;28;19954;-51
2023/10/02 00:27:34;;;;;;;;;;;25.10;71.00;;;;;;5114324;28;19978;-50
2023/10/02 00:30:00;;;;;;;;;;;25.00;70.90;;;;;;5096431;28;19923;-50
2023/10/02 00:32:26;;;;;;;;;;;25.10;71.00;;;;;;5098149;28;19919;-51
2023/10/02 00:34:52;;;;;;;;;;;25.10;70.90;;;;;;5103305;28;19920;-53
2023/10/02 00:37:18;;;;;;;;;;;25.10;70.70;;;;;;5098229;28;19920;-50
2023/10/02 00:39:52;;;;;;;;;;;25.00;70.60;;;;;;5086835;28;19919;-52
2023/10/02 00:42:28;;;;;;;;;;;25.00;70.60;;;;;;5081408;28;19938;-52
2023/10/02 00:44:55;;;;;;;;;;;25.00;70.50;;;;;;5079243;28;19919;-52
2023/10/02 00:47:45;;;;;;;;;;;25.00;70.40;;;;;;5094083;28;19931;-53
2023/10/02 00:50:19;;;;;;;;;;;25.00;70.50;;;;;;5092591;28;19975;-52
2023/10/02 00:52:45;;;;;;;;;;;25.00;70.50;;;;;;5086099;28;20435;-52
2023/10/02 00:55:12;;;;;;;;;;;25.00;70.50;;;;;;5105142;28;19918;-53
2023/10/02 00:57:38;;;;;;;;;;;25.00;70.70;;;;;;5111218;28;19934;-52
2023/10/02 01:00:06;;;;;;;;;;;25.00;70.70;;;;;;5124820;28;19931;-54
2023/10/02 01:02:34;;;;;;;;;;;25.00;70.70;;;;;;5124559;28;19911;-54
2023/10/02 01:05:00;;;;;;;;;;;25.00;70.50;;;;;;5104411;28;19945;-53
2023/10/02 01:07:47;;;;;;;;;;;24.90;70.40;;;;;;5018331;28;19913;-54
2023/10/02 01:10:18;;;;;;;;;;;24.90;70.30;;;;;;5020742;28;19910;-52
2023/10/02 01:12:49;;;;;;;;;;;24.90;70.10;;;;;;5015032;28;19929;-54
2023/10/02 01:15:26;;;;;;;;;;;24.90;70.10;;;;;;5022191;28;20536;-53
2023/10/02 01:17:52;;;;;;;;;;;24.90;70.10;;;;;;5013063;28;19928;-54
2023/10/02 01:20:21;;;;;;;;;;;24.90;70.10;;;;;;5013408;28;19917;-53
2023/10/02 01:22:52;;;;;;;;;;;24.90;70.20;;;;;;5005315;28;20012;-52
2023/10/02 01:25:23;;;;;;;;;;;24.90;70.20;;;;;;5007918;28;19926;-50
2023/10/02 01:27:51;;;;;;;;;;;24.90;70.10;;;;;;5014063;28;19911;-48
2023/10/02 01:30:23;;;;;;;;;;;24.80;70.00;;;;;;5012900;28;19916;-52
2023/10/02 01:33:06;;;;;;;;;;;24.80;70.10;;;;;;5019713;28;19909;-50
2023/10/02 01:35:38;;;;;;;;;;;24.80;70.00;;;;;;5015952;28;20302;-53
2023/10/02 01:38:12;;;;;;;;;;;24.80;70.00;;;;;;5013600;28;19925;-48
2023/10/02 01:40:44;;;;;;;;;;;24.80;70.00;;;;;;5021334;28;19984;-48
2023/10/02 01:43:13;;;;;;;;;;;24.80;70.00;;;;;;5007478;28;19913;-49
2023/10/02 01:45:43;;;;;;;;;;;24.80;70.00;;;;;;5104715;28;19963;-50
2023/10/02 01:48:09;;;;;;;;;;;24.80;70.10;;;;;;5121443;28;19911;-49
2023/10/02 01:50:36;;;;;;;;;;;24.80;70.20;;;;;;5124081;28;20001;-48
2023/10/02 01:53:25;;;;;;;;;;;24.70;70.10;;;;;;5097594;27;19915;-52
2023/10/02 01:55:51;;;;;;;;;;;24.80;70.10;;;;;;5124223;27;19975;-51
2023/10/02 01:58:17;;;;;;;;;;;24.70;70.00;;;;;;5101422;28;19959;-51
2023/10/02 02:00:45;;;;;;;;;;;24.70;70.00;;;;;;5103365;28;19908;-51
2023/10/02 02:03:14;;;;;;;;;;;24.70;69.90;;;;;;5092697;28;19975;-50
2023/10/02 02:05:44;;;;;;;;;;;24.70;70.00;;;;;;5119008;28;19943;-51
2023/10/02 02:08:22;;;;;;;;;;;24.70;69.90;;;;;;5085360;28;19912;-52
2023/10/02 02:10:52;;;;;;;;;;;24.70;69.90;;;;;;5103917;28;19912;-48
2023/10/02 02:13:21;;;;;;;;;;;24.70;70.00;;;;;;5096973;28;19916;-51
2023/10/02 02:15:51;;;;;;;;;;;24.60;69.90;;;;;;5102919;28;19947;-49
2023/10/02 02:18:19;;;;;;;;;;;24.60;69.90;;;;;;5102399;28;19920;-49
2023/10/02 02:20:57;;;;;;;;;;;24.60;69.90;;;;;;5085163;28;19908;-51
2023/10/02 02:23:24;;;;;;;;;;;24.60;69.90;;;;;;5096976;28;19912;-48
2023/10/02 02:25:50;;;;;;;;;;;24.60;70.00;;;;;;5103355;28;19984;-50
2023/10/02 02:28:17;;;;;;;;;;;24.60;70.00;;;;;;5103853;28;19908;-50
2023/10/02 02:30:43;;;;;;;;;;;24.60;70.00;;;;;;5103465;28;19908;-49
2023/10/02 02:33:12;;;;;;;;;;;24.60;70.00;;;;;;5102622;28;19911;-50
2023/10/02 02:35:39;;;;;;;;;;;24.60;70.00;;;;;;5103418;28;20289;-49
2023/10/02 02:38:14;;;;;;;;;;;24.50;69.90;;;;;;5102842;28;20404;-51
2023/10/02 02:40:40;;;;;;;;;;;24.50;69.90;;;;;;5085424;28;19967;-52
2023/10/02 02:43:19;;;;;;;;;;;24.50;69.90;;;;;;5102548;28;19934;-48
2023/10/02 02:45:47;;;;;;;;;;;24.50;70.00;;;;;;5100562;28;19911;-52
2023/10/02 02:48:15;;;;;;;;;;;24.50;70.00;;;;;;5102279;28;19934;-49
2023/10/02 02:50:41;;;;;;;;;;;24.50;69.90;;;;;;5099430;28;19951;-49
2023/10/02 02:53:21;;;;;;;;;;;24.50;70.10;;;;;;5102424;28;19990;-49
2023/10/02 02:56:15;;;;;;;;;;;24.40;70.00;;;;;;5102281;28;19934;-49
2023/10/02 02:58:44;;;;;;;;;;;24.40;70.00;;;;;;5096572;28;19927;-48
2023/10/02 03:01:22;;;;;;;;;;;24.40;70.00;;;;;;5123015;28;19954;-49
2023/10/02 03:03:52;;;;;;;;;;;24.40;70.10;;;;;;5137607;27;19915;-49
2023/10/02 03:06:21;;;;;;;;;;;24.40;70.10;;;;;;5123417;28;19979;-50
2023/10/02 03:08:47;;;;;;;;;;;24.40;70.10;;;;;;5122995;28;19973;-50
2023/10/02 03:11:16;;;;;;;;;;;24.40;70.00;;;;;;5123262;28;19907;-49
2023/10/02 03:13:42;;;;;;;;;;;24.30;70.10;;;;;;5104780;28;19911;-48
2023/10/02 03:16:12;;;;;;;;;;;24.30;70.10;;;;;;5122394;28;19921;-52
2023/10/02 03:18:43;;;;;;;;;;;24.30;70.10;;;;;;5122544;28;19975;-51
2023/10/02 03:21:24;;;;;;;;;;;24.30;70.10;;;;;;5122377;28;19926;-49
2023/10/02 03:23:50;;;;;;;;;;;24.30;70.20;;;;;;5122118;28;19912;-48
2023/10/02 03:29:05;;;;;;;;;;;24.30;70.20;;;;;;5122661;28;19907;-49
2023/10/02 03:31:37;;;;;;;;;;;24.20;70.20;;;;;;5106144;28;19984;-48
2023/10/02 03:34:25;;;;;;;;;;;24.20;70.20;;;;;;5126475;27;19950;-49
2023/10/02 03:36:50;;;;;;;;;;;24.20;70.30;;;;;;5126767;28;19912;-48
2023/10/02 03:39:51;;;;;;;;;;;24.20;70.20;;;;;;5126749;28;19926;-49
2023/10/02 03:42:12;;;;;;;;;;;24.20;70.20;;;;;;5122321;28;19912;-47
2023/10/02 03:44:39;;;;;;;;;;;24.20;70.20;;;;;;5126586;28;19918;-49
2023/10/02 03:47:05;;;;;;;;;;;24.20;70.30;;;;;;5126367;28;19951;-48
2023/10/02 03:49:33;;;;;;;;;;;24.10;70.30;;;;;;5126673;28;19942;-48
2023/10/02 03:52:00;;;;;;;;;;;24.10;70.30;;;;;;5107778;28;19907;-47
2023/10/02 03:54:29;;;;;;;;;;;24.10;70.30;;;;;;5126284;28;19934;-47
2023/10/02 03:56:55;;;;;;;;;;;24.10;70.30;;;;;;5126256;28;19919;-49
2023/10/02 03:59:22;;;;;;;;;;;24.10;70.40;;;;;;5126529;28;19919;-49
2023/10/02 04:01:50;;;;;;;;;;;24.10;70.40;;;;;;5126958;28;19923;-51
2023/10/02 04:04:23;;;;;;;;;;;24.10;70.40;;;;;;5126170;28;19914;-51
2023/10/02 04:06:53;;;;;;;;;;;24.10;70.40;;;;;;5126875;28;19919;-49
2023/10/02 04:11:45;;;;;;;;;;;24.00;70.40;;;;;;5126711;28;19912;-51
2023/10/02 04:19:49;;;;;;;;;;;24.00;70.50;;;;;;5117846;27;19972;-49
2023/10/02 04:22:19;;;;;;;;;;;24.00;70.50;;;;;;5119156;28;19933;-48
2023/10/02 04:24:53;;;;;;;;;;;24.00;70.60;;;;;;5140596;27;19919;-48
2023/10/02 04:27:25;;;;;;;;;;;24.00;71.20;;;;;;5120003;28;20019;-50
2023/10/02 04:32:36;;;;;;;;;;;23.90;70.60;;;;;;5126615;28;19909;-49
2023/10/02 04:35:03;;;;;;;;;;;23.90;70.60;;;;;;5118517;28;19911;-49
2023/10/02 04:37:31;;;;;;;;;;;23.90;70.60;;;;;;5126107;28;19919;-48
2023/10/02 04:42:57;;;;;;;;;;;23.90;70.70;;;;;;5126157;28;20341;-49
2023/10/02 04:45:21;;;;;;;;;;;23.80;71.40;;;;;;5138056;27;19919;-48
2023/10/02 04:47:54;;;;;;;;;;;23.80;70.60;;;;;;5107026;28;19933;-48
2023/10/02 04:52:56;;;;;;;;;;;23.80;70.70;;;;;;5125052;28;19918;-48
2023/10/02 04:55:25;;;;;;;;;;;23.80;70.70;;;;;;5118575;28;19907;-50
2023/10/02 04:57:52;;;;;;;;;;;23.80;70.80;;;;;;5125040;28;19950;-50
2023/10/02 05:00:28;;;;;;;;;;;23.80;70.70;;;;;;5125407;28;19919;-48
2023/10/02 05:03:09;;;;;;;;;;;23.80;70.80;;;;;;5125343;28;19924;-50
2023/10/02 05:05:49;;;;;;;;;;;23.70;70.80;;;;;;5125683;28;19912;-49
2023/10/02 05:08:21;;;;;;;;;;;23.70;70.70;;;;;;5125538;28;19919;-48
2023/10/02 05:10:49;;;;;;;;;;;23.70;70.90;;;;;;5124967;28;19919;-49
2023/10/02 05:13:44;;;;;;;;;;;23.70;70.80;;;;;;5117705;28;19951;-48
2023/10/02 05:16:11;;;;;;;;;;;23.70;70.90;;;;;;5124519;28;20161;-48
2023/10/02 05:18:37;;;;;;;;;;;23.70;70.90;;;;;;5125094;28;19926;-49
2023/10/02 05:21:04;;;;;;;;;;;23.70;70.90;;;;;;5124940;28;19923;-48
2023/10/02 05:23:30;;;;;;;;;;;23.70;71.00;;;;;;5125200;28;19981;-48
2023/10/02 05:26:02;;;;;;;;;;;23.70;70.90;;;;;;5124563;27;19912;-47
2023/10/02 05:28:44;;;;;;;;;;;23.60;71.00;;;;;;5124848;28;19947;-49
2023/10/02 05:31:11;;;;;;;;;;;23.60;70.90;;;;;;5124209;27;20430;-48
2023/10/02 05:33:37;;;;;;;;;;;23.60;70.90;;;;;;5125291;27;19912;-49
2023/10/02 05:36:05;;;;;;;;;;;23.60;70.90;;;;;;5124527;27;19916;-48
2023/10/02 05:38:33;;;;;;;;;;;23.60;71.00;;;;;;5123390;28;19942;-49
2023/10/02 05:40:59;;;;;;;;;;;23.60;71.00;;;;;;5124266;28;19971;-47
2023/10/02 05:43:31;;;;;;;;;;;23.60;71.20;;;;;;5124834;27;19908;-48
2023/10/02 05:45:57;;;;;;;;;;;23.60;71.10;;;;;;5123515;28;19912;-48
2023/10/02 05:50:56;;;;;;;;;;;23.50;71.10;;;;;;5123060;28;19912;-48
2023/10/02 05:53:26;;;;;;;;;;;23.50;71.10;;;;;;5123630;28;19911;-47
2023/10/02 05:56:35;;;;;;;;;;;23.50;71.20;;;;;;5122863;28;19911;-48
2023/10/02 05:58:42;;;;;;;;;;;23.50;71.10;;;;;;5103455;28;19922;-47
2023/10/02 06:01:18;;;;;;;;;;;23.50;71.20;;;;;;5122151;27;19919;-47
2023/10/02 06:03:45;;;;;;;;;;;23.50;71.20;;;;;;5119928;28;19911;-47
2023/10/02 06:06:15;;;;;;;;;;;23.50;71.20;;;;;;5122722;28;19912;-47
2023/10/02 06:08:42;;;;;;;;;;;23.50;71.20;;;;;;5124226;28;19912;-47
2023/10/02 06:11:26;;;;;;;;;;;23.40;71.10;;;;;;5123067;28;19922;-48
2023/10/02 06:13:54;;;;;;;;;;;23.40;71.20;;;;;;5123937;28;19965;-48
2023/10/02 06:16:24;;;;;;;;;;;23.40;71.20;;;;;;5117608;28;19908;-48
2023/10/02 06:19:42;;;;;;;;;;;23.40;71.20;;;;;;5121449;28;19916;-50
2023/10/02 06:21:46;;;;;;;;;;;23.40;71.30;;;;;;5109551;28;20537;-48
2023/10/02 06:24:15;;;;;;;;;;;23.30;71.30;;;;;;5123717;28;19911;-47
2023/10/02 06:26:53;;;;;;;;;;;23.30;71.30;;;;;;5139499;27;19912;-46
2023/10/02 06:29:28;;;;;;;;;;;23.30;71.20;;;;;;5123296;28;19919;-47
2023/10/02 06:32:05;;;;;;;;;;;23.30;71.40;;;;;;5122137;28;20398;-47
2023/10/02 06:34:37;;;;;;;;;;;23.30;71.40;;;;;;5122600;28;19907;-47
2023/10/02 06:37:07;;;;;;;;;;;23.30;71.40;;;;;;5105347;28;20296;-47
2023/10/02 06:39:36;;;;;;;;;;;23.30;71.40;;;;;;5123088;28;19977;-47
2023/10/02 06:42:04;;;;;;;;;;;23.30;71.50;;;;;;5115228;28;19918;-48
2023/10/02 06:44:52;;;;;;;;;;;23.20;71.40;;;;;;5120718;27;19975;-47
2023/10/02 06:47:22;;;;;;;;;;;23.20;71.40;;;;;;5115534;28;19915;-49
2023/10/02 06:49:51;;;;;;;;;;;23.20;71.40;;;;;;5123210;28;19916;-48
2023/10/02 06:52:17;;;;;;;;;;;23.20;71.40;;;;;;5110730;28;19918;-47
2023/10/02 06:54:44;;;;;;;;;;;23.20;71.50;;;;;;5122489;28;20006;-48
2023/10/02 06:57:11;;;;;;;;;;;23.20;71.50;;;;;;5121737;28;19911;-48
2023/10/02 06:59:39;;;;;;;;;;;23.20;71.50;;;;;;5122880;28;20132;-47
2023/10/02 07:02:06;;;;;;;;;;;23.20;71.50;;;;;;5123107;28;20249;-47
2023/10/02 07:04:36;;;;;;;;;;;23.20;71.50;;;;;;5115787;28;19907;-48
2023/10/02 07:07:07;;;;;;;;;;;23.20;71.50;;;;;;5120193;28;19933;-50
2023/10/02 07:09:36;;;;;;;;;;;23.10;71.50;;;;;;5123016;28;19911;-47
2023/10/02 07:12:08;;;;;;;;;;;23.10;71.50;;;;;;5122795;28;19911;-48
2023/10/02 07:14:36;;;;;;;;;;;23.10;71.60;;;;;;5122844;28;19975;-47
2023/10/02 07:17:11;;;;;;;;;;;23.10;71.60;;;;;;5122852;28;19989;-47
2023/10/02 07:19:38;;;;;;;;;;;23.10;71.60;;;;;;5122331;28;19920;-47
2023/10/02 07:22:10;;;;;;;;;;;23.00;71.60;;;;;;5123120;28;19975;-48
2023/10/02 07:24:40;;;;;;;;;;;23.00;71.70;;;;;;5123027;28;19933;-46
2023/10/02 07:27:22;;;;;;;;;;;23.00;71.70;;;;;;5123116;28;19908;-48
2023/10/02 07:29:51;;;;;;;;;;;23.00;71.80;;;;;;5121586;28;19934;-47
2023/10/02 07:32:18;;;;;;;;;;;23.00;71.80;;;;;;5116408;28;19907;-47
2023/10/02 07:34:46;;;;;;;;;;;23.00;71.70;;;;;;5121699;28;20702;-47
2023/10/02 07:37:13;;;;;;;;;;;23.00;71.80;;;;;;5121749;28;20446;-47
2023/10/02 07:39:39;;;;;;;;;;;23.00;71.70;;;;;;5116785;28;19922;-47
2023/10/02 07:42:06;;;;;;;;;;;22.90;71.70;;;;;;5122578;28;19908;-47
2023/10/02 07:44:38;;;;;;;;;;;22.90;71.80;;;;;;5122420;28;20653;-47
2023/10/02 07:47:10;;;;;;;;;;;23.00;71.80;;;;;;5122694;28;20505;-46
2023/10/02 07:49:39;;;;;;;;;;;22.90;71.70;;;;;;5122151;28;19912;-46
2023/10/02 07:52:09;;;;;;;;;;;22.90;71.80;;;;;;5122064;28;19907;-46
2023/10/02 07:54:44;;;;;;;;;;;22.90;71.80;;;;;;5121955;28;19912;-47
2023/10/02 07:57:12;;;;;;;;;;;22.90;71.90;;;;;;5122210;28;19919;-47
2023/10/02 07:59:43;;;;;;;;;;;22.90;71.90;;;;;;5121920;28;19969;-47
2023/10/02 08:02:23;;;;;;;;;;;22.90;71.90;;;;;;5121696;28;19919;-47
2023/10/02 08:04:52;;;;;;;;;;;22.80;71.90;;;;;;5113508;28;19912;-46
2023/10/02 08:07:18;;;;;;;;;;;22.80;71.90;;;;;;5115045;28;19912;-46
2023/10/02 08:09:47;;;;;;;;;;;22.80;71.90;;;;;;5121864;28;19912;-46
2023/10/02 08:12:29;;;;;;;;;;;22.80;71.90;;;;;;5121480;28;19911;-46
2023/10/02 08:15:01;;;;;;;;;;;22.80;71.90;;;;;;5121916;28;19911;-46
2023/10/02 08:18:16;;;;;;;;;;;22.80;71.90;;;;;;5124091;27;19912;-46
2023/10/02 08:20:15;;;;;;;;;;;22.80;71.90;;;;;;5116039;28;19935;-46
2023/10/02 08:22:44;;;;;;;;;;;22.80;72.00;;;;;;5122980;28;19908;-46
2023/10/02 08:25:13;;;;;;;;;;;22.70;71.90;;;;;;5122544;28;19925;-47
2023/10/02 08:27:57;;;;;;;;;;;22.70;71.90;;;;;;5133194;27;19908;-47
2023/10/02 08:30:42;;;;;;;;;;;22.70;71.90;;;;;;5114608;28;19938;-46
2023/10/02 08:33:09;;;;;;;;;;;22.70;71.90;;;;;;5114939;28;19912;-46
2023/10/02 08:35:37;;;;;;;;;;;22.70;72.00;;;;;;5121483;28;19955;-47
2023/10/02 08:38:07;;;;;;;;;;;22.70;72.10;;;;;;5125094;28;19919;-47
2023/10/02 08:40:33;;;;;;;;;;;22.70;72.10;;;;;;5117546;28;19911;-47
2023/10/02 08:42:59;;;;;;;;;;;22.60;71.90;;;;;;5125476;28;19934;-47
2023/10/02 08:45:26;;;;;;;;;;;22.60;72.10;;;;;;5120539;28;19912;-46
2023/10/02 08:47:52;;;;;;;;;;;22.60;72.10;;;;;;5115258;28;20370;-48
2023/10/02 08:50:19;;;;;;;;;;;22.60;72.10;;;;;;5123227;28;20012;-46
2023/10/02 08:52:50;;;;;;;;;;;22.60;72.90;;;;;;5126004;27;19912;-46
2023/10/02 08:55:51;;;;;;;;;;;22.60;72.20;;;;;;5118740;28;19929;-46
2023/10/02 08:58:20;;;;;;;;;;;22.60;72.20;;;;;;5125486;28;19934;-46
2023/10/02 09:01:06;;;;;;;;;;;22.60;72.10;;;;;;5124464;28;19919;-48
2023/10/02 09:03:41;;;;;;;;;;;22.60;73.00;;;;;;5120562;27;20002;-46
2023/10/02 09:06:27;;;;;;;;;;;22.50;72.10;;;;;;5124593;27;19918;-48
2023/10/02 09:11:38;;;;;;;;;;;22.50;72.30;;;;;;5120555;28;19961;-46
2023/10/02 09:19:53;;;;;;;;;;;22.50;72.30;;;;;;5022448;28;19928;-46
2023/10/02 09:22:20;;;;;;;;;;;22.50;72.30;;;;;;5016148;28;19913;-47
2023/10/02 09:24:56;;;;;;;;;;;22.50;72.30;;;;;;5022284;28;19914;-47
2023/10/02 09:27:30;;;;;;;;;;;22.40;72.30;;;;;;5001140;28;19956;-47
2023/10/02 09:32:49;;;;;;;;;;;22.40;72.30;;;;;;5022619;28;19932;-47
2023/10/02 09:35:21;;;;;;;;;;;22.40;72.30;;;;;;5021741;28;20004;-46
2023/10/02 09:37:55;;;;;;;;;;;22.40;72.40;;;;;;5021987;28;19925;-46
2023/10/02 09:40:27;;;;;;;;;;;22.40;72.40;;;;;;5015178;28;19914;-46
2023/10/02 09:43:00;;;;;;;;;;;22.40;72.50;;;;;;5022201;28;20383;-46
2023/10/02 09:45:35;;;;;;;;;;;22.40;72.40;;;;;;5021668;28;20089;-46
2023/10/02 09:48:05;;;;;;;;;;;22.40;72.50;;;;;;5022337;28;19916;-47
2023/10/02 09:50:32;;;;;;;;;;;22.30;72.40;;;;;;5005558;28;19968;-46
2023/10/02 09:53:00;;;;;;;;;;;22.30;72.50;;;;;;5068174;27;20002;-47
2023/10/02 09:55:34;;;;;;;;;;;22.30;72.50;;;;;;5124815;28;19932;-46
2023/10/02 09:58:01;;;;;;;;;;;22.30;73.20;;;;;;5138460;27;20034;-47
2023/10/02 10:00:40;;;;;;;;;;;22.30;72.50;;;;;;5123990;28;19919;-47
2023/10/02 10:03:24;;;;;;;;;;;22.30;72.50;;;;;;5122968;28;19981;-47
2023/10/02 10:06:08;;;;;;;;;;;22.30;72.50;;;;;;5122271;28;19942;-46
2023/10/02 10:09:18;;;;;;;;;;;22.30;72.60;;;;;;5120000;28;20010;-47
2023/10/02 10:11:39;;;;;;;;;;;22.30;72.50;;;;;;5113533;28;19912;-46
2023/10/02 10:14:35;;;;;;;;;;;22.20;72.50;;;;;;5115787;27;19908;-46
2023/10/02 10:17:12;;;;;;;;;;;22.20;72.50;;;;;;5116811;28;19912;-47
2023/10/02 10:19:41;;;;;;;;;;;22.20;72.50;;;;;;5122368;28;19962;-46
2023/10/02 10:22:26;;;;;;;;;;;22.20;72.60;;;;;;5122717;28;19908;-49
2023/10/02 10:27:41;;;;;;;;;;;22.20;72.60;;;;;;5124342;27;20650;-47
2023/10/02 10:35:41;;;;;;;;;;;22.20;72.70;;;;;;5124003;28;19926;-46
2023/10/02 10:38:21;;;;;;;;;;;22.10;72.60;;;;;;5136028;27;19972;-47
2023/10/02 10:40:50;;;;;;;;;;;22.10;72.60;;;;;;5122973;28;19904;-46
2023/10/02 10:43:16;;;;;;;;;;;22.10;72.60;;;;;;5115609;27;19943;-46
2023/10/02 10:45:44;;;;;;;;;;;22.10;72.60;;;;;;5123748;28;19908;-46
2023/10/02 10:48:19;;;;;;;;;;;22.10;72.70;;;;;;5122763;28;19933;-46
2023/10/02 10:50:57;;;;;;;;;;;22.10;73.20;;;;;;5122831;27;19907;-48
2023/10/02 10:53:26;;;;;;;;;;;22.10;72.70;;;;;;5122838;28;19942;-46
2023/10/02 10:55:56;;;;;;;;;;;22.10;72.70;;;;;;5121110;27;19907;-47
2023/10/02 10:58:31;;;;;;;;;;;22.10;72.80;;;;;;5122510;28;19915;-46
2023/10/02 11:00:58;;;;;;;;;;;22.00;72.70;;;;;;5121791;28;19912;-45
2023/10/02 11:03:26;;;;;;;;;;;22.00;72.80;;;;;;5124376;28;19938;-46
2023/10/02 11:05:52;;;;;;;;;;;22.00;72.80;;;;;;5122482;28;20261;-49
2023/10/02 11:08:24;;;;;;;;;;;22.00;72.80;;;;;;5122505;28;19937;-46
2023/10/02 11:11:04;;;;;;;;;;;22.00;72.80;;;;;;5121496;28;19959;-45
2023/10/02 11:13:51;;;;;;;;;;;22.00;72.90;;;;;;5117631;28;19915;-46
2023/10/02 11:16:23;;;;;;;;;;;22.00;72.80;;;;;;5115873;28;19919;-45
2023/10/02 11:19:10;;;;;;;;;;;22.00;72.80;;;;;;5122244;28;19916;-45
2023/10/02 11:21:45;;;;;;;;;;;21.90;72.90;;;;;;5118236;28;19911;-46
2023/10/02 11:24:23;;;;;;;;;;;21.90;72.90;;;;;;5122879;28;19912;-45
2023/10/02 11:26:53;;;;;;;;;;;21.90;72.90;;;;;;5122813;28;19912;-46
2023/10/02 11:29:23;;;;;;;;;;;21.90;73.00;;;;;;5116277;28;19911;-46
2023/10/02 11:32:19;;;;;;;;;;;21.90;72.90;;;;;;5122685;28;19915;-45
2023/10/02 11:34:45;;;;;;;;;;;21.90;73.00;;;;;;5109642;28;19912;-46
2023/10/02 11:37:11;;;;;;;;;;;21.90;73.00;;;;;;5122533;28;19911;-45
2023/10/02 11:39:37;;;;;;;;;;;21.90;73.00;;;;;;5121695;28;19920;-47
2023/10/02 11:42:05;;;;;;;;;;;21.90;73.00;;;;;;5122470;28;19955;-46
2023/10/02 11:44:34;;;;;;;;;;;21.80;72.90;;;;;;5123031;28;19918;-46
2023/10/02 11:47:00;;;;;;;;;;;21.80;72.90;;;;;;5122187;28;20045;-46
2023/10/02 11:49:29;;;;;;;;;;;21.80;72.90;;;;;;5099291;28;19966;-46
2023/10/02 11:52:00;;;;;;;;;;;21.80;72.90;;;;;;5120843;28;19919;-46
2023/10/02 11:54:28;;;;;;;;;;;21.80;72.90;;;;;;5126679;28;19969;-47
2023/10/02 11:56:54;;;;;;;;;;;21.80;72.90;;;;;;5126656;27;19911;-49
2023/10/02 11:59:20;;;;;;;;;;;21.80;73.00;;;;;;5127085;28;19923;-45
2023/10/02 12:01:51;;;;;;;;;;;21.80;72.90;;;;;;5125852;28;19934;-46
2023/10/02 12:04:17;;;;;;;;;;;21.70;72.90;;;;;;5126610;28;20637;-46
2023/10/02 12:06:43;;;;;;;;;;;21.80;73.00;;;;;;5126799;28;19907;-48
2023/10/02 12:09:17;;;;;;;;;;;21.80;73.00;;;;;;5126477;28;19956;-45
2023/10/02 12:11:44;;;;;;;;;;;21.70;72.90;;;;;;5126407;28;19907;-47
2023/10/02 12:14:09;;;;;;;;;;;21.70;73.00;;;;;;5125975;27;19996;-45
2023/10/02 12:16:38;;;;;;;;;;;21.70;73.00;;;;;;5126299;28;19988;-47
2023/10/02 12:19:04;;;;;;;;;;;21.70;73.00;;;;;;5125798;27;19945;-44
2023/10/02 12:21:30;;;;;;;;;;;21.70;73.00;;;;;;5122501;28;19959;-44
2023/10/02 12:24:00;;;;;;;;;;;21.70;73.00;;;;;;5126357;27;20292;-47
2023/10/02 12:26:46;;;;;;;;;;;21.70;73.00;;;;;;5126612;28;19919;-47
2023/10/02 12:29:12;;;;;;;;;;;21.70;73.00;;;;;;5081301;28;19912;-47
2023/10/02 12:31:38;;;;;;;;;;;21.70;73.10;;;;;;5081742;28;19920;-44
2023/10/02 12:34:05;;;;;;;;;;;21.70;73.10;;;;;;5082528;28;19924;-44
2023/10/02 12:36:31;;;;;;;;;;;21.60;73.10;;;;;;5082781;28;19912;-46
2023/10/02 12:39:00;;;;;;;;;;;21.60;73.10;;;;;;5082385;28;19921;-46
2023/10/02 12:41:30;;;;;;;;;;;21.60;73.10;;;;;;5096557;28;19967;-46
2023/10/02 12:43:56;;;;;;;;;;;21.60;73.10;;;;;;5098932;28;19916;-46
2023/10/02 12:46:22;;;;;;;;;;;21.60;73.10;;;;;;5102727;28;19912;-46
2023/10/02 12:48:48;;;;;;;;;;;21.60;73.20;;;;;;5102846;28;19922;-46
2023/10/02 12:51:15;;;;;;;;;;;21.60;73.90;;;;;;5102905;28;19912;-46
2023/10/02 12:53:41;;;;;;;;;;;21.60;73.20;;;;;;5102390;28;19912;-46
2023/10/02 12:56:07;;;;;;;;;;;21.60;73.20;;;;;;5102452;28;19943;-47
2023/10/02 12:58:33;;;;;;;;;;;21.60;73.20;;;;;;5102509;28;19923;-47
2023/10/02 13:01:00;;;;;;;;;;;21.60;73.20;;;;;;5101212;28;19915;-46
2023/10/02 13:03:32;;;;;;;;;;;21.60;73.20;;;;;;5100899;28;19912;-46
2023/10/02 13:05:59;;;;;;;;;;;21.50;73.20;;;;;;5110323;28;19916;-47
2023/10/02 13:08:25;;;;;;;;;;;21.50;73.20;;;;;;5125854;28;19919;-46
2023/10/02 13:10:51;;;;;;;;;;;21.50;73.30;;;;;;5124989;28;19911;-47
2023/10/02 13:13:17;;;;;;;;;;;21.50;73.30;;;;;;5125588;27;19930;-47
2023/10/02 13:15:43;;;;;;;;;;;21.50;73.20;;;;;;5124629;28;19912;-48
2023/10/02 13:18:09;;;;;;;;;;;21.50;73.30;;;;;;5125130;28;19916;-47
2023/10/02 13:20:38;;;;;;;;;;;21.50;73.30;;;;;;5125414;28;19996;-47
2023/10/02 13:23:04;;;;;;;;;;;21.50;73.40;;;;;;5124396;27;19915;-47
2023/10/02 13:25:30;;;;;;;;;;;21.50;73.40;;;;;;5125309;27;19912;-48
2023/10/02 13:27:56;;;;;;;;;;;21.50;73.40;;;;;;5125117;27;19917;-46
2023/10/02 13:30:25;;;;;;;;;;;21.50;73.40;;;;;;5125249;27;19912;-47
2023/10/02 13:32:52;;;;;;;;;;;21.50;73.40;;;;;;5121582;27;19911;-48
2023/10/02 13:35:18;;;;;;;;;;;21.40;73.40;;;;;;5117415;27;19947;-48
2023/10/02 13:37:44;;;;;;;;;;;21.40;73.30;;;;;;5123997;28;19945;-47
2023/10/02 13:40:26;;;;;;;;;;;21.40;73.40;;;;;;5124542;28;20449;-47
2023/10/02 13:42:52;;;;;;;;;;;21.40;73.40;;;;;;5124357;28;19918;-48
2023/10/02 13:45:19;;;;;;;;;;;21.40;73.30;;;;;;5123556;28;19908;-47
2023/10/02 13:47:48;;;;;;;;;;;21.40;73.30;;;;;;5123277;28;19912;-49
2023/10/02 13:50:14;;;;;;;;;;;21.40;73.30;;;;;;5121665;28;19912;-47
2023/10/02 13:52:40;;;;;;;;;;;21.40;73.40;;;;;;5124039;27;19911;-47
2023/10/02 13:55:27;;;;;;;;;;;21.40;73.40;;;;;;5123698;28;19918;-46
2023/10/02 13:57:54;;;;;;;;;;;21.40;73.40;;;;;;5123664;27;20033;-49
2023/10/02 14:00:20;;;;;;;;;;;21.40;73.40;;;;;;5123986;28;19980;-47
2023/10/02 14:02:49;;;;;;;;;;;21.40;73.50;;;;;;5123056;28;19925;-48
2023/10/02 14:05:15;;;;;;;;;;;21.40;73.50;;;;;;5115871;28;19911;-47
2023/10/02 14:07:41;;;;;;;;;;;21.40;73.50;;;;;;5122180;28;19927;-47
2023/10/02 14:10:10;;;;;;;;;;;21.40;73.60;;;;;;5124105;27;20280;-48
2023/10/02 14:12:42;;;;;;;;;;;21.40;73.60;;;;;;5123660;27;19994;-48
2023/10/02 14:15:09;;;;;;;;;;;21.40;73.60;;;;;;5122090;27;19911;-48
2023/10/02 14:17:36;;;;;;;;;;;21.40;73.60;;;;;;5123591;28;19985;-47
2023/10/02 14:20:08;;;;;;;;;;;21.40;73.60;;;;;;5124171;28;19912;-50
2023/10/02 14:22:35;;;;;;;;;;;21.40;73.60;;;;;;5124385;27;19935;-47
2023/10/02 14:25:01;;;;;;;;;;;21.40;73.70;;;;;;5122388;27;20319;-49
2023/10/02 14:27:27;;;;;;;;;;;21.40;73.70;;;;;;5123325;28;19934;-47
2023/10/02 14:29:53;;;;;;;;;;;21.40;73.70;;;;;;5104446;28;20363;-49
2023/10/02 14:32:19;;;;;;;;;;;21.40;73.70;;;;;;5119371;27;19969;-48
2023/10/02 14:34:45;;;;;;;;;;;21.40;73.70;;;;;;5123684;27;19907;-48
2023/10/02 14:37:11;;;;;;;;;;;21.50;73.80;;;;;;5123320;28;19911;-47
2023/10/02 14:39:39;;;;;;;;;;;21.40;73.80;;;;;;5124132;27;19922;-48
2023/10/02 14:42:24;;;;;;;;;;;21.40;73.80;;;;;;5057131;28;19958;-47
2023/10/02 14:44:50;;;;;;;;;;;21.50;74.60;;;;;;5059321;28;19951;-48
2023/10/02 14:47:18;;;;;;;;;;;21.50;73.90;;;;;;5060053;28;19913;-47
2023/10/02 14:49:44;;;;;;;;;;;21.50;74.00;;;;;;5059705;28;19931;-48
2023/10/02 14:52:10;;;;;;;;;;;21.50;74.10;;;;;;5059670;28;19908;-47
2023/10/02 14:54:36;;;;;;;;;;;21.50;74.00;;;;;;5059503;28;19963;-47
2023/10/02 14:57:01;;;;;;;;;;;21.50;74.00;;;;;;5055778;28;19913;-49
2023/10/02 14:59:29;;;;;;;;;;;21.50;74.10;;;;;;5039872;28;19921;-48
2023/10/02 15:01:55;;;;;;;;;;;21.50;74.20;;;;;;5039793;28;19909;-49
2023/10/02 15:04:23;;;;;;;;;;;21.50;74.20;;;;;;5022907;28;19920;-47
2023/10/02 15:06:49;;;;;;;;;;;21.50;74.20;;;;;;5039409;28;19920;-47
2023/10/02 15:09:22;;;;;;;;;;;21.50;74.30;;;;;;5040773;28;20414;-47
2023/10/02 15:11:49;;;;;;;;;;;21.50;74.30;;;;;;5039238;28;19913;-46
2023/10/02 15:14:15;;;;;;;;;;;21.60;74.40;;;;;;5039197;28;19935;-51
2023/10/02 15:16:41;;;;;;;;;;;21.50;74.40;;;;;;5039447;28;19913;-47
2023/10/02 15:19:07;;;;;;;;;;;21.50;74.70;;;;;;5061263;28;19927;-47
2023/10/02 15:21:32;;;;;;;;;;;21.60;74.80;;;;;;5102781;28;19908;-47
2023/10/02 15:23:59;;;;;;;;;;;21.60;74.90;;;;;;5102211;28;19916;-47
2023/10/02 15:26:25;;;;;;;;;;;21.60;75.00;;;;;;5102164;28;19912;-49